createdAt,value
2023-01-08T00:01:03.315Z,98793.98
2023-01-08T00:03:30.297Z,98795.45
2023-01-08T00:06:00.837Z,98790.09
2023-01-08T00:08:27.939Z,98792.99
2023-01-08T00:10:55.876Z,98791.30
2023-01-08T00:13:22.998Z,98786.88
2023-01-08T00:15:49.835Z,98789.27
2023-01-08T00:18:16.698Z,98793.88
2023-01-08T00:20:44.279Z,98796.67
2023-01-08T00:23:17.926Z,98797.06
2023-01-08T00:25:44.996Z,98793.26
2023-01-08T00:28:11.983Z,98795.52
2023-01-08T00:30:38.802Z,98805.58
2023-01-08T00:33:05.797Z,98805.06
2023-01-08T00:35:32.630Z,98807.55
2023-01-08T00:37:59.502Z,98808.75
2023-01-08T00:40:26.331Z,98805.04
2023-01-08T00:42:53.281Z,98803.88
2023-01-08T00:45:20.284Z,98803.98
2023-01-08T00:47:47.174Z,98803.98
2023-01-08T00:50:14.231Z,98804.40
2023-01-08T00:52:41.026Z,98803.40
2023-01-08T00:55:08.458Z,98802.45
2023-01-08T00:57:36.070Z,98799.98
2023-01-08T01:00:04.224Z,98802.83
2023-01-08T01:02:31.110Z,98803.35
2023-01-08T01:04:57.978Z,98801.59
2023-01-08T01:07:27.082Z,98798.70
2023-01-08T01:09:53.856Z,98799.41
2023-01-08T01:12:25.590Z,98794.14
2023-01-08T01:14:52.458Z,98793.34
2023-01-08T01:17:19.694Z,98795.65
2023-01-08T01:19:46.607Z,98800.09
2023-01-08T01:22:13.452Z,98797.27
2023-01-08T01:24:40.368Z,98797.95
2023-01-08T01:27:09.688Z,98796.83
2023-01-08T01:29:39.425Z,98799.91
2023-01-08T01:32:06.382Z,98793.05
2023-01-08T01:34:33.267Z,98787.89
2023-01-08T01:37:00.116Z,98786.52
2023-01-08T01:39:27.156Z,98782.26
2023-01-08T01:41:54.025Z,98775.15
2023-01-08T01:44:43.378Z,98772.65
2023-01-08T01:47:17.032Z,98764.57
2023-01-08T01:49:52.752Z,98757.52
2023-01-08T01:52:22.431Z,98753.10
2023-01-08T01:54:50.367Z,98756.46
2023-01-08T01:57:17.199Z,98757.31
2023-01-08T01:59:46.477Z,98759.23
2023-01-08T02:02:13.412Z,98756.48
2023-01-08T02:04:40.451Z,98750.55
2023-01-08T02:07:16.753Z,98742.84
2023-01-08T02:09:50.554Z,98742.07
2023-01-08T02:12:44.389Z,98750.12
2023-01-08T02:15:29.515Z,98750.83
2023-01-08T02:18:06.698Z,98745.81
2023-01-08T02:20:39.389Z,98747.02
2023-01-08T02:23:15.671Z,98754.13
2023-01-08T02:25:54.545Z,98763.48
2023-01-08T02:28:21.448Z,98771.21
2023-01-08T02:30:48.528Z,98768.04
2023-01-08T02:33:15.553Z,98764.75
2023-01-08T02:35:47.818Z,98756.76
2023-01-08T02:38:15.523Z,98756.45
2023-01-08T02:40:51.734Z,98757.61
2023-01-08T02:43:24.876Z,98759.41
2023-01-08T02:45:53.190Z,98757.23
2023-01-08T02:48:42.413Z,98761.10
2023-01-08T02:51:14.215Z,98755.38
2023-01-08T02:53:45.780Z,98751.05
2023-01-08T02:56:15.345Z,98745.20
2023-01-08T02:58:44.465Z,98744.06
2023-01-08T03:01:12.272Z,98744.54
2023-01-08T03:03:43.688Z,98743.77
2023-01-08T03:06:15.197Z,98739.43
2023-01-08T03:08:43.212Z,98740.26
2023-01-08T03:11:14.923Z,98741.99
2023-01-08T03:14:01.239Z,98737.41
2023-01-08T03:16:31.206Z,98732.73
2023-01-08T03:19:26.892Z,98726.33
2023-01-08T03:21:53.871Z,98729.41
2023-01-08T03:24:23.059Z,98723.83
2023-01-08T03:26:50.765Z,98723.48
2023-01-08T03:29:18.563Z,98726.86
2023-01-08T03:31:45.491Z,98724.88
2023-01-08T03:34:12.549Z,98727.60
2023-01-08T03:36:39.826Z,98725.60
2023-01-08T03:39:16.370Z,98723.90
2023-01-08T03:41:46.311Z,98719.25
2023-01-08T03:44:13.176Z,98716.76
2023-01-08T03:46:42.917Z,98716.19
2023-01-08T03:49:12.392Z,98713.44
2023-01-08T03:51:40.920Z,98710.35
2023-01-08T03:54:07.759Z,98708.23
2023-01-08T03:56:37.353Z,98708.64
2023-01-08T03:59:04.225Z,98711.29
2023-01-08T04:01:31.203Z,98706.66
2023-01-08T04:03:58.217Z,98708.77
2023-01-08T04:06:25.069Z,98708.34
2023-01-08T04:08:56.988Z,98706.45
2023-01-08T04:11:27.255Z,98701.91
2023-01-08T04:13:56.500Z,98701.45
2023-01-08T04:16:23.544Z,98694.89
2023-01-08T04:18:50.432Z,98700.39
2023-01-08T04:21:22.736Z,98698.89
2023-01-08T04:23:50.301Z,98697.20
2023-01-08T04:26:17.111Z,98696.60
2023-01-08T04:28:43.939Z,98692.61
2023-01-08T04:31:10.900Z,98700.15
2023-01-08T04:33:37.858Z,98700.54
2023-01-08T04:36:05.278Z,98704.70
2023-01-08T04:38:32.151Z,98700.31
2023-01-08T04:41:02.101Z,98698.03
2023-01-08T04:43:29.401Z,98704.79
2023-01-08T04:46:03.964Z,98702.61
2023-01-08T04:48:31.243Z,98697.15
2023-01-08T04:51:01.856Z,98694.70
2023-01-08T04:53:29.095Z,98689.67
2023-01-08T04:58:25.320Z,98688.85
2023-01-08T05:00:52.347Z,98691.39
2023-01-08T05:03:19.293Z,98685.30
2023-01-08T05:05:48.089Z,98682.20
2023-01-08T05:08:19.842Z,98681.51
2023-01-08T05:10:46.695Z,98682.29
2023-01-08T05:13:18.649Z,98679.85
2023-01-08T05:15:45.664Z,98685.43
2023-01-08T05:18:12.837Z,98681.14
2023-01-08T05:20:39.782Z,98679.27
2023-01-08T05:23:06.839Z,98682.63
2023-01-08T05:25:34.619Z,98680.63
2023-01-08T05:28:01.641Z,98681.27
2023-01-08T05:30:28.590Z,98675.41
2023-01-08T05:32:55.542Z,98673.42
2023-01-08T05:35:22.485Z,98669.84
2023-01-08T05:37:49.623Z,98669.42
2023-01-08T05:40:16.771Z,98671.24
2023-01-08T05:42:43.819Z,98667.33
2023-01-08T05:45:10.868Z,98662.19
2023-01-08T05:47:37.830Z,98659.91
2023-01-08T05:50:05.677Z,98662.52
2023-01-08T05:52:32.626Z,98660.41
2023-01-08T05:55:00.432Z,98664.35
2023-01-08T05:57:28.461Z,98667.49
2023-01-08T05:59:55.518Z,98665.94
2023-01-08T06:02:22.591Z,98666.56
2023-01-08T06:04:49.707Z,98669.05
2023-01-08T06:07:16.745Z,98667.52
2023-01-08T06:09:43.795Z,98672.21
2023-01-08T06:12:11.048Z,98673.20
2023-01-08T06:14:37.980Z,98680.80
2023-01-08T06:17:07.906Z,98679.41
2023-01-08T06:19:35.056Z,98679.82
2023-01-08T06:22:02.006Z,98678.02
2023-01-08T06:24:28.975Z,98678.36
2023-01-08T06:26:56.001Z,98674.70
2023-01-08T06:29:22.965Z,98676.20
2023-01-08T06:31:49.981Z,98674.14
2023-01-08T06:34:22.261Z,98675.30
2023-01-08T06:36:51.572Z,98672.01
2023-01-08T06:39:18.705Z,98674.17
2023-01-08T06:41:45.647Z,98677.16
2023-01-08T06:44:13.440Z,98675.21
2023-01-08T06:46:43.192Z,98674.48
2023-01-08T06:49:10.410Z,98675.17
2023-01-08T06:51:37.315Z,98674.96
2023-01-08T06:54:04.464Z,98673.84
2023-01-08T06:56:32.151Z,98674.24
2023-01-08T06:58:59.377Z,98674.94
2023-01-08T07:01:28.792Z,98672.01
2023-01-08T07:03:56.105Z,98671.20
2023-01-08T07:06:26.151Z,98668.36
2023-01-08T07:08:53.204Z,98669.03
2023-01-08T07:11:20.249Z,98670.26
2023-01-08T07:13:47.193Z,98670.10
2023-01-08T07:16:14.633Z,98670.79
2023-01-08T07:18:42.612Z,98670.89
2023-01-08T07:21:09.721Z,98674.85
2023-01-08T07:23:39.063Z,98672.52
2023-01-08T07:26:07.657Z,98675.30
2023-01-08T07:28:34.800Z,98680.19
2023-01-08T07:31:05.982Z,98681.70
2023-01-08T07:33:33.294Z,98681.47
2023-01-08T07:36:00.343Z,98681.11
2023-01-08T07:38:27.537Z,98684.50
2023-01-08T07:40:54.649Z,98682.00
2023-01-08T07:43:21.612Z,98682.48
2023-01-08T07:45:48.630Z,98683.56
2023-01-08T07:48:16.722Z,98690.02
2023-01-08T07:50:44.238Z,98692.77
2023-01-08T07:53:13.069Z,98688.05
2023-01-08T07:55:42.347Z,98688.68
2023-01-08T07:58:13.288Z,98685.09
2023-01-08T08:00:42.791Z,98685.59
2023-01-08T08:03:11.940Z,98682.51
2023-01-08T08:05:39.555Z,98679.42
2023-01-08T08:08:10.869Z,98682.67
2023-01-08T08:10:38.492Z,98679.64
2023-01-08T08:13:05.600Z,98678.28
2023-01-08T08:15:33.831Z,98677.49
2023-01-08T08:18:00.869Z,98675.45
2023-01-08T08:20:27.788Z,98673.65
2023-01-08T08:23:02.329Z,98665.86
2023-01-08T08:25:29.353Z,98663.88
2023-01-08T08:27:58.251Z,98666.77
2023-01-08T08:30:25.178Z,98667.23
2023-01-08T08:32:52.326Z,98664.84
2023-01-08T08:35:21.483Z,98658.30
2023-01-08T08:37:50.580Z,98651.44
2023-01-08T08:40:17.653Z,98652.77
2023-01-08T08:42:44.509Z,98653.05
2023-01-08T08:45:14.365Z,98656.66
2023-01-08T08:47:41.219Z,98656.10
2023-01-08T08:50:08.251Z,98652.32
2023-01-08T08:52:37.551Z,98648.91
2023-01-08T08:55:04.678Z,98653.13
2023-01-08T08:57:31.560Z,98653.42
2023-01-08T09:00:00.901Z,98645.08
2023-01-08T09:02:28.081Z,98638.88
2023-01-08T09:04:54.942Z,98644.13
2023-01-08T09:07:21.767Z,98636.68
2023-01-08T09:09:48.813Z,98641.32
2023-01-08T09:12:15.599Z,98638.19
2023-01-08T09:14:42.512Z,98637.87
2023-01-08T09:17:09.371Z,98629.86
2023-01-08T09:19:36.406Z,98632.12
2023-01-08T09:22:03.330Z,98630.65
2023-01-08T09:24:32.405Z,98628.38
2023-01-08T09:26:59.613Z,98618.41
2023-01-08T09:29:26.467Z,98616.23
2023-01-08T09:31:53.598Z,98606.42
2023-01-08T09:34:20.559Z,98601.21
2023-01-08T09:36:47.733Z,98596.69
2023-01-08T09:39:14.696Z,98598.05
2023-01-08T09:41:43.932Z,98599.61
2023-01-08T09:44:12.170Z,98593.89
2023-01-08T09:46:39.066Z,98592.98
2023-01-08T09:49:07.568Z,98592.79
2023-01-08T09:51:35.521Z,98590.77
2023-01-08T09:54:02.444Z,98591.36
2023-01-08T09:56:29.333Z,98584.91
2023-01-08T09:58:58.700Z,98582.11
2023-01-08T10:01:30.264Z,98579.16
2023-01-08T10:04:04.436Z,98569.56
2023-01-08T10:06:31.559Z,98567.83
2023-01-08T10:09:00.875Z,98560.75
2023-01-08T10:11:39.785Z,98562.56
2023-01-08T10:14:11.584Z,98562.48
2023-01-08T10:16:38.469Z,98554.71
2023-01-08T10:19:08.206Z,98563.17
2023-01-08T10:21:39.893Z,98559.65
2023-01-08T10:24:07.153Z,98556.66
2023-01-08T10:26:38.608Z,98552.65
2023-01-08T10:29:15.889Z,98546.77
2023-01-08T10:31:54.618Z,98550.47
2023-01-08T10:34:44.405Z,98543.80
2023-01-08T10:37:37.741Z,98542.90
2023-01-08T10:40:09.061Z,98540.55
2023-01-08T10:42:35.944Z,98525.83
2023-01-08T10:45:06.905Z,98527.08
2023-01-08T10:47:39.431Z,98526.61
2023-01-08T10:50:06.911Z,98536.79
2023-01-08T10:52:34.531Z,98519.94
2023-01-08T10:55:40.933Z,98513.72
2023-01-08T10:58:10.898Z,98516.52
2023-01-08T11:00:37.895Z,98511.15
2023-01-08T11:03:06.620Z,98495.31
2023-01-08T11:05:38.565Z,98486.70
2023-01-08T11:08:16.230Z,98495.90
2023-01-08T11:10:43.259Z,98485.48
2023-01-08T11:13:17.542Z,98480.65
2023-01-08T11:15:44.714Z,98488.02
2023-01-08T11:18:22.765Z,98474.85
2023-01-08T11:20:49.947Z,98475.25
2023-01-08T11:23:24.907Z,98476.98
2023-01-08T11:25:59.237Z,98474.98
2023-01-08T11:28:34.609Z,98471.42
2023-01-08T11:31:14.993Z,98461.53
2023-01-08T11:33:42.027Z,98456.42
2023-01-08T11:36:22.788Z,98446.29
2023-01-08T11:38:52.103Z,98442.52
2023-01-08T11:41:59.828Z,98442.04
2023-01-08T11:44:29.741Z,98448.21
2023-01-08T11:47:03.289Z,98444.45
2023-01-08T11:49:36.119Z,98441.55
2023-01-08T11:52:09.313Z,98436.40
2023-01-08T11:55:12.126Z,98440.17
2023-01-08T11:58:10.705Z,98431.39
2023-01-08T12:00:56.743Z,98434.14
2023-01-08T12:03:37.002Z,98439.45
2023-01-08T12:06:30.507Z,98415.81
2023-01-08T12:09:03.648Z,98417.73
2023-01-08T12:11:41.035Z,98419.94
2023-01-08T12:14:17.865Z,98416.86
2023-01-08T12:16:44.827Z,98409.77
2023-01-08T12:19:11.686Z,98396.05
2023-01-08T12:22:02.922Z,98393.43
2023-01-08T12:24:57.598Z,98395.89
2023-01-08T12:27:55.891Z,98396.05
2023-01-08T12:30:42.053Z,98389.48
2023-01-08T12:33:12.196Z,98389.88
2023-01-08T12:35:45.003Z,98392.11
2023-01-08T12:38:16.417Z,98390.94
2023-01-08T12:40:49.422Z,98393.48
2023-01-08T12:43:25.296Z,98385.82
2023-01-08T12:45:53.677Z,98388.84
2023-01-08T12:48:25.098Z,98386.35
2023-01-08T12:51:04.215Z,98379.95
2023-01-08T12:54:08.299Z,98384.27
2023-01-08T12:56:55.618Z,98384.94
2023-01-08T12:59:35.637Z,98380.09
2023-01-08T13:02:21.231Z,98374.90
2023-01-08T13:04:48.873Z,98376.52
2023-01-08T13:07:43.090Z,98380.90
2023-01-08T13:10:28.702Z,98383.48
2023-01-08T13:12:58.200Z,98379.09
2023-01-08T13:15:26.526Z,98379.19
2023-01-08T13:17:57.972Z,98380.95
2023-01-08T13:20:27.939Z,98375.36
2023-01-08T13:22:55.864Z,98368.50
2023-01-08T13:25:28.163Z,98364.44
2023-01-08T13:27:55.107Z,98365.14
2023-01-08T13:30:46.464Z,98375.10
2023-01-08T13:33:28.568Z,98370.66
2023-01-08T13:36:13.931Z,98367.27
2023-01-08T13:38:40.912Z,98368.60
2023-01-08T13:41:34.180Z,98371.88
2023-01-08T13:44:07.070Z,98367.85
2023-01-08T13:46:37.119Z,98370.25
2023-01-08T13:49:05.582Z,98369.48
2023-01-08T13:51:38.632Z,98370.91
2023-01-08T13:54:17.625Z,98374.31
2023-01-08T13:56:46.282Z,98378.61
2023-01-08T13:59:42.011Z,98378.81
2023-01-08T14:02:29.901Z,98379.95
2023-01-08T14:05:03.259Z,98381.02
2023-01-08T14:07:32.427Z,98378.58
2023-01-08T14:10:09.710Z,98372.62
2023-01-08T14:12:36.620Z,98367.46
2023-01-08T14:15:06.735Z,98368.14
2023-01-08T14:17:36.088Z,98368.75
2023-01-08T14:20:03.152Z,98372.33
2023-01-08T14:22:33.682Z,98367.10
2023-01-08T14:25:02.871Z,98373.41
2023-01-08T14:27:30.800Z,98369.45
2023-01-08T14:29:57.805Z,98367.30
2023-01-08T14:32:30.013Z,98370.32
2023-01-08T14:34:59.093Z,98373.08
2023-01-08T14:37:25.940Z,98368.70
2023-01-08T14:39:54.950Z,98371.06
2023-01-08T14:42:47.331Z,98383.86
2023-01-08T14:45:23.206Z,98376.92
2023-01-08T14:47:54.093Z,98367.46
2023-01-08T14:50:37.617Z,98378.82
2023-01-08T14:53:10.445Z,98375.30
2023-01-08T14:55:41.509Z,98374.52
2023-01-08T14:58:17.417Z,98374.13
2023-01-08T15:00:48.699Z,98378.02
2023-01-08T15:03:42.801Z,98375.81
2023-01-08T15:06:11.597Z,98373.27
2023-01-08T15:08:39.886Z,98367.88
2023-01-08T15:11:19.397Z,98373.94
2023-01-08T15:13:47.399Z,98367.91
2023-01-08T15:16:18.948Z,98367.16
2023-01-08T15:18:47.227Z,98364.80
2023-01-08T15:21:19.337Z,98359.11
2023-01-08T15:23:48.925Z,98357.02
2023-01-08T15:26:18.155Z,98361.76
2023-01-08T15:29:02.087Z,98353.33
2023-01-08T15:31:50.434Z,98357.82
2023-01-08T15:34:20.897Z,98356.10
2023-01-08T15:36:52.438Z,98348.27
2023-01-08T15:39:19.648Z,98350.95
2023-01-08T15:42:05.164Z,98356.54
2023-01-08T15:44:32.114Z,98352.70
2023-01-08T15:46:59.047Z,98360.23
2023-01-08T15:49:26.049Z,98359.66
2023-01-08T15:51:53.125Z,98351.98
2023-01-08T15:54:21.458Z,98353.09
2023-01-08T15:56:48.380Z,98357.69
2023-01-08T15:59:15.348Z,98363.72
2023-01-08T16:01:42.493Z,98374.38
2023-01-08T16:04:09.533Z,98372.91
2023-01-08T16:06:36.420Z,98357.88
2023-01-08T16:09:03.637Z,98366.14
2023-01-08T16:11:30.549Z,98367.02
2023-01-08T16:13:57.525Z,98360.50
2023-01-08T16:16:24.409Z,98368.02
2023-01-08T16:18:52.660Z,98369.61
2023-01-08T16:21:19.557Z,98367.90
2023-01-08T16:23:46.416Z,98367.98
2023-01-08T16:26:14.546Z,98362.70
2023-01-08T16:28:41.654Z,98369.85
2023-01-08T16:31:09.351Z,98370.42
2023-01-08T16:33:36.504Z,98365.92
2023-01-08T16:36:08.024Z,98374.39
2023-01-08T16:38:35.689Z,98369.27
2023-01-08T16:41:02.549Z,98370.66
2023-01-08T16:43:30.316Z,98377.27
2023-01-08T16:45:57.480Z,98366.11
2023-01-08T16:48:24.338Z,98362.99
2023-01-08T16:50:51.199Z,98366.55
2023-01-08T16:53:22.201Z,98372.88
2023-01-08T16:55:51.358Z,98366.63
2023-01-08T16:58:18.377Z,98361.36
2023-01-08T17:00:45.477Z,98364.70
2023-01-08T17:03:12.525Z,98362.34
2023-01-08T17:05:39.591Z,98359.95
2023-01-08T17:08:08.554Z,98373.59
2023-01-08T17:10:35.533Z,98369.94
2023-01-08T17:15:39.544Z,98358.61
2023-01-08T17:18:06.554Z,98366.30
2023-01-08T17:20:33.498Z,98365.14
2023-01-08T17:23:01.893Z,98366.45
2023-01-08T17:25:28.937Z,98363.09
2023-01-08T17:27:58.404Z,98358.55
2023-01-08T17:30:25.478Z,98350.73
2023-01-08T17:32:54.825Z,98351.67
2023-01-08T17:35:21.927Z,98356.11
2023-01-08T17:37:48.979Z,98358.66
2023-01-08T17:40:16.328Z,98355.70
2023-01-08T17:42:45.729Z,98350.84
